createdAt,value
2023-03-18T00:00:19.797Z,8.8
2023-03-18T00:01:36.078Z,8.8
2023-03-18T00:02:52.374Z,8.8
2023-03-18T00:04:08.685Z,8.8
2023-03-18T00:05:24.979Z,8.8
2023-03-18T00:07:57.564Z,8.8
2023-03-18T00:09:13.859Z,8.9
2023-03-18T00:10:30.155Z,8.8
2023-03-18T00:11:45.452Z,8.9
2023-03-18T00:13:01.750Z,8.8
2023-03-18T00:14:18.043Z,8.8
2023-03-18T00:15:34.342Z,8.8
2023-03-18T00:18:06.941Z,8.8
2023-03-18T00:19:23.225Z,8.8
2023-03-18T00:20:39.524Z,8.8
2023-03-18T00:21:55.818Z,8.8
2023-03-18T00:23:12.117Z,8.8
2023-03-18T00:24:28.398Z,8.8
2023-03-18T00:25:44.700Z,8.7
2023-03-18T00:27:00.978Z,8.8
2023-03-18T00:28:16.300Z,8.7
2023-03-18T00:30:48.879Z,8.7
2023-03-18T00:32:04.209Z,8.7
2023-03-18T00:33:19.512Z,8.7
2023-03-18T00:34:35.810Z,8.7
2023-03-18T00:35:52.105Z,8.7
2023-03-18T00:38:24.694Z,8.7
2023-03-18T00:39:40.981Z,8.7
2023-03-18T00:40:57.271Z,8.6
2023-03-18T00:42:13.562Z,8.7
2023-03-18T00:43:29.858Z,8.7
2023-03-18T00:44:46.153Z,8.6
2023-03-18T00:46:02.442Z,8.6
2023-03-18T00:47:18.740Z,8.6
2023-03-18T00:48:35.033Z,8.6
2023-03-18T00:49:51.462Z,8.6
2023-03-18T00:51:07.750Z,8.6
2023-03-18T00:52:24.034Z,8.6
2023-03-18T00:53:40.344Z,8.6
2023-03-18T00:54:56.635Z,8.6
2023-03-18T00:56:12.932Z,8.6
2023-03-18T00:57:29.219Z,8.6
2023-03-18T00:58:45.520Z,8.5
2023-03-18T01:00:00.829Z,8.5
2023-03-18T01:01:16.147Z,8.5
2023-03-18T01:02:32.439Z,8.5
2023-03-18T01:03:48.726Z,8.5
2023-03-18T01:05:05.023Z,8.5
2023-03-18T01:06:21.328Z,8.5
2023-03-18T01:07:37.615Z,8.5
2023-03-18T01:08:53.916Z,8.5
2023-03-18T01:10:10.193Z,8.5
2023-03-18T01:11:26.498Z,8.4
2023-03-18T01:12:42.785Z,8.4
2023-03-18T01:13:59.073Z,8.4
2023-03-18T01:15:15.385Z,8.4
2023-03-18T01:16:31.678Z,8.4
2023-03-18T01:17:46.985Z,8.4
2023-03-18T01:19:03.270Z,8.4
2023-03-18T01:20:19.560Z,8.4
2023-03-18T01:21:35.856Z,8.4
2023-03-18T01:22:52.159Z,8.4
2023-03-18T01:24:08.460Z,8.4
2023-03-18T01:25:24.750Z,8.4
2023-03-18T01:26:41.042Z,8.3
2023-03-18T01:27:57.339Z,8.3
2023-03-18T01:29:13.622Z,8.3
2023-03-18T01:30:29.932Z,8.3
2023-03-18T01:31:46.208Z,8.3
2023-03-18T01:33:02.511Z,8.3
2023-03-18T01:34:17.818Z,8.3
2023-03-18T01:35:34.105Z,8.3
2023-03-18T01:36:50.416Z,8.2
2023-03-18T01:39:23.006Z,8.2
2023-03-18T01:40:39.294Z,8.2
2023-03-18T01:41:55.589Z,8.2
2023-03-18T01:43:11.871Z,8.2
2023-03-18T01:44:28.167Z,8.2
2023-03-18T01:47:00.771Z,8.2
2023-03-18T01:48:17.065Z,8.2
2023-03-18T01:49:33.360Z,8.2
2023-03-18T01:50:48.661Z,8.2
2023-03-18T01:52:04.949Z,8.2
2023-03-18T01:53:21.254Z,8.2
2023-03-18T01:54:37.539Z,8.2
2023-03-18T01:55:53.847Z,8.2
2023-03-18T01:57:10.134Z,8.1
2023-03-18T01:58:26.420Z,8.2
2023-03-18T01:59:42.715Z,8.2
2023-03-18T02:00:59.008Z,8.2
2023-03-18T02:02:15.311Z,8.2
2023-03-18T02:03:31.611Z,8.1
2023-03-18T02:04:47.890Z,8.1
2023-03-18T02:06:04.185Z,8.1
2023-03-18T02:07:19.499Z,8.1
2023-03-18T02:08:35.786Z,8.1
2023-03-18T02:09:52.088Z,8.1
2023-03-18T02:11:08.373Z,8.1
2023-03-18T02:12:24.667Z,8.1
2023-03-18T02:13:40.973Z,8.1
2023-03-18T02:14:57.273Z,8.1
2023-03-18T02:16:13.552Z,8.1
2023-03-18T02:18:46.149Z,8
2023-03-18T02:20:02.435Z,8
2023-03-18T02:21:18.735Z,8
2023-03-18T02:22:35.032Z,8
2023-03-18T02:23:50.333Z,8
2023-03-18T02:25:06.640Z,8
2023-03-18T02:26:22.927Z,8
2023-03-18T02:27:39.217Z,8
2023-03-18T02:28:55.523Z,8
2023-03-18T02:30:11.815Z,8
2023-03-18T02:31:28.102Z,8
2023-03-18T02:32:44.407Z,7.9
2023-03-18T02:34:00.692Z,7.9
2023-03-18T02:35:16.999Z,7.9
2023-03-18T02:36:33.284Z,7.9
2023-03-18T02:37:49.580Z,7.9
2023-03-18T02:39:05.874Z,7.9
2023-03-18T02:40:21.180Z,7.9
2023-03-18T02:41:37.471Z,7.9
2023-03-18T02:42:53.771Z,7.9
2023-03-18T02:44:10.070Z,7.8
2023-03-18T02:45:26.354Z,7.8
2023-03-18T02:46:42.650Z,7.9
2023-03-18T02:47:58.955Z,7.9
2023-03-18T02:49:15.246Z,7.9
2023-03-18T02:50:31.526Z,7.9
2023-03-18T02:51:47.819Z,7.9
2023-03-18T02:53:04.117Z,7.9
2023-03-18T02:54:20.408Z,7.9
2023-03-18T02:55:36.713Z,7.9
2023-03-18T02:56:52.019Z,7.9
2023-03-18T02:58:08.324Z,8
2023-03-18T02:59:24.610Z,8
2023-03-18T03:00:40.896Z,8
2023-03-18T03:01:57.199Z,8
2023-03-18T03:03:13.490Z,8
2023-03-18T03:04:29.789Z,7.9
2023-03-18T03:05:46.082Z,7.9
2023-03-18T03:07:02.375Z,7.9
2023-03-18T03:08:18.660Z,7.9
2023-03-18T03:09:34.958Z,7.9
2023-03-18T03:10:51.254Z,7.9
2023-03-18T03:12:07.543Z,7.9
2023-03-18T03:13:22.855Z,7.9
2023-03-18T03:14:39.154Z,7.9
2023-03-18T03:15:55.442Z,7.9
2023-03-18T03:17:11.746Z,7.8
2023-03-18T03:18:28.034Z,7.8
2023-03-18T03:19:44.336Z,7.8
2023-03-18T03:21:00.623Z,7.8
2023-03-18T03:22:16.924Z,7.8
2023-03-18T03:23:33.212Z,7.8
2023-03-18T03:24:49.504Z,7.8
2023-03-18T03:26:05.803Z,7.8
2023-03-18T03:27:22.087Z,7.8
2023-03-18T03:28:38.398Z,7.7
2023-03-18T03:29:53.698Z,7.8
2023-03-18T03:31:09.987Z,7.7
2023-03-18T03:33:42.578Z,7.7
2023-03-18T03:34:58.888Z,7.7
2023-03-18T03:36:15.167Z,7.7
2023-03-18T03:37:31.473Z,7.7
2023-03-18T03:38:47.765Z,7.7
2023-03-18T03:40:04.050Z,7.7
2023-03-18T03:41:20.352Z,7.7
2023-03-18T03:42:36.637Z,7.7
2023-03-18T03:43:52.940Z,7.6
2023-03-18T03:45:09.240Z,7.6
2023-03-18T03:46:24.551Z,7.6
2023-03-18T03:47:40.826Z,7.6
2023-03-18T03:48:57.120Z,7.6
2023-03-18T03:50:13.426Z,7.6
2023-03-18T03:51:29.718Z,7.6
2023-03-18T03:52:46.011Z,7.6
2023-03-18T03:54:01.330Z,7.5
2023-03-18T03:55:17.630Z,7.6
2023-03-18T03:56:33.910Z,7.5
2023-03-18T03:57:50.204Z,7.5
2023-03-18T03:59:06.506Z,7.5
2023-03-18T04:00:22.792Z,7.5
2023-03-18T04:01:39.093Z,7.5
2023-03-18T04:02:55.393Z,7.5
2023-03-18T04:04:11.687Z,7.5
2023-03-18T04:05:27.983Z,7.5
2023-03-18T04:06:44.265Z,7.5
2023-03-18T04:08:00.564Z,7.5
2023-03-18T04:09:16.867Z,7.5
2023-03-18T04:10:32.166Z,7.5
2023-03-18T04:11:48.477Z,7.5
2023-03-18T04:13:04.759Z,7.4
2023-03-18T04:14:21.049Z,7.4
2023-03-18T04:16:53.651Z,7.4
2023-03-18T04:18:09.936Z,7.4
2023-03-18T04:19:26.238Z,7.4
2023-03-18T04:20:42.519Z,7.4
2023-03-18T04:21:58.827Z,7.4
2023-03-18T04:23:15.123Z,7.4
2023-03-18T04:24:31.404Z,7.4
2023-03-18T04:25:47.709Z,7.4
2023-03-18T04:27:03.019Z,7.4
2023-03-18T04:28:19.309Z,7.4
2023-03-18T04:29:35.606Z,7.4
2023-03-18T04:30:51.900Z,7.4
2023-03-18T04:32:08.190Z,7.4
2023-03-18T04:33:24.480Z,7.4
2023-03-18T04:34:40.779Z,7.4
2023-03-18T04:35:57.088Z,7.4
2023-03-18T04:37:13.369Z,7.4
2023-03-18T04:38:29.678Z,7.4
2023-03-18T04:39:45.971Z,7.4
2023-03-18T04:42:18.544Z,7.4
2023-03-18T04:43:33.861Z,7.4
2023-03-18T04:44:50.161Z,7.4
2023-03-18T04:46:06.448Z,7.4
2023-03-18T04:47:22.696Z,7.3
2023-03-18T04:48:38.955Z,7.4
2023-03-18T04:49:55.193Z,7.3
2023-03-18T04:51:11.436Z,7.3
2023-03-18T04:52:27.674Z,7.4
2023-03-18T04:53:43.905Z,7.4
2023-03-18T04:55:00.138Z,7.4
2023-03-18T04:56:16.395Z,7.3
2023-03-18T04:57:32.631Z,7.4
2023-03-18T04:58:48.876Z,7.3
2023-03-18T05:00:04.118Z,7.3
2023-03-18T05:01:20.000Z,7.3
2023-03-18T05:02:36.611Z,7.3
2023-03-18T05:03:52.857Z,7.4
2023-03-18T05:05:09.091Z,7.4
2023-03-18T05:06:25.322Z,7.4
2023-03-18T05:07:41.568Z,7.4
2023-03-18T05:08:57.819Z,7.4
2023-03-18T05:10:14.040Z,7.4
2023-03-18T05:11:30.292Z,7.4
2023-03-18T05:12:46.532Z,7.4
2023-03-18T05:14:02.779Z,7.4
2023-03-18T05:15:19.008Z,7.4
2023-03-18T05:16:34.266Z,7.4
2023-03-18T05:17:50.500Z,7.4
2023-03-18T05:19:06.741Z,7.4
2023-03-18T05:20:22.981Z,7.4
2023-03-18T05:21:39.232Z,7.4
2023-03-18T05:22:55.472Z,7.4
2023-03-18T05:24:11.714Z,7.4
2023-03-18T05:25:27.940Z,7.4
2023-03-18T05:26:44.194Z,7.5
2023-03-18T05:28:00.437Z,7.4
2023-03-18T05:29:16.678Z,7.5
2023-03-18T05:30:32.922Z,7.5
2023-03-18T05:31:49.161Z,7.5
2023-03-18T05:33:04.409Z,7.5
2023-03-18T05:35:36.893Z,7.5
2023-03-18T05:36:53.126Z,7.6
2023-03-18T05:38:09.374Z,7.6
2023-03-18T05:39:25.606Z,7.6
2023-03-18T05:40:41.850Z,7.6
2023-03-18T05:41:58.082Z,7.6
2023-03-18T05:43:14.326Z,7.6
2023-03-18T05:44:30.579Z,7.6
2023-03-18T05:45:46.808Z,7.7
2023-03-18T05:47:03.042Z,7.7
2023-03-18T05:48:19.299Z,7.7
2023-03-18T05:49:34.540Z,7.7
2023-03-18T05:50:50.797Z,7.7
2023-03-18T05:52:07.026Z,7.7
2023-03-18T05:53:23.271Z,7.7
2023-03-18T05:54:39.503Z,7.8
2023-03-18T05:55:55.755Z,7.8
2023-03-18T05:57:11.986Z,7.8
2023-03-18T05:58:28.238Z,7.8
2023-03-18T05:59:44.471Z,7.8
2023-03-18T06:01:00.716Z,7.9
2023-03-18T06:02:16.953Z,7.9
2023-03-18T06:03:33.181Z,7.9
2023-03-18T06:04:49.428Z,7.9
2023-03-18T06:06:04.697Z,8
2023-03-18T06:07:20.923Z,8
2023-03-18T06:08:37.171Z,8
2023-03-18T06:09:53.415Z,8
2023-03-18T06:11:09.657Z,8.1
2023-03-18T06:12:25.887Z,8.1
2023-03-18T06:13:42.136Z,8.1
2023-03-18T06:14:58.363Z,8.1
2023-03-18T06:16:14.603Z,8.1
2023-03-18T06:17:30.846Z,8.1
2023-03-18T06:18:47.090Z,8.2
2023-03-18T06:21:19.566Z,8.2
2023-03-18T06:22:34.821Z,8.2
2023-03-18T06:23:51.056Z,8.2
2023-03-18T06:25:07.299Z,8.3
2023-03-18T06:26:23.549Z,8.3
2023-03-18T06:27:39.781Z,8.3
2023-03-18T06:28:56.030Z,8.3
2023-03-18T06:30:12.256Z,8.3
2023-03-18T06:31:28.499Z,8.3
2023-03-18T06:32:44.745Z,8.3
2023-03-18T06:34:00.980Z,8.3
2023-03-18T06:35:17.226Z,8.4
2023-03-18T06:36:33.465Z,8.4
2023-03-18T06:39:05.950Z,8.4
2023-03-18T06:40:21.201Z,8.5
2023-03-18T06:41:37.435Z,8.5
2023-03-18T06:44:09.917Z,8.5
2023-03-18T06:45:25.188Z,8.6
2023-03-18T06:46:40.441Z,8.6
2023-03-18T06:47:56.677Z,8.6
2023-03-18T06:49:12.920Z,8.7
2023-03-18T06:50:29.161Z,8.7
2023-03-18T06:51:45.405Z,8.7
2023-03-18T06:53:01.642Z,8.8
2023-03-18T06:54:17.870Z,8.9
2023-03-18T06:55:34.125Z,8.8
2023-03-18T06:56:50.357Z,8.9
2023-03-18T06:58:06.595Z,8.9
2023-03-18T06:59:21.863Z,9
2023-03-18T07:00:37.106Z,9
2023-03-18T07:01:53.364Z,9
2023-03-18T07:03:09.605Z,9.1
2023-03-18T07:04:25.830Z,9.1
2023-03-18T07:05:42.000Z,9.2
2023-03-18T07:06:58.316Z,9.2
2023-03-18T07:08:14.546Z,9.3
2023-03-18T07:09:30.798Z,9.3
2023-03-18T07:10:47.032Z,9.3
2023-03-18T07:12:03.279Z,9.4
2023-03-18T07:13:19.525Z,9.5
2023-03-18T07:14:35.760Z,9.5
2023-03-18T07:15:52.001Z,9.6
2023-03-18T07:17:07.257Z,9.6
2023-03-18T07:18:23.489Z,9.6
2023-03-18T07:19:39.723Z,9.7
2023-03-18T07:20:55.976Z,9.7
2023-03-18T07:22:12.201Z,9.8
2023-03-18T07:23:28.442Z,9.8
2023-03-18T07:24:44.686Z,9.9
2023-03-18T07:26:00.936Z,9.9
2023-03-18T07:27:17.179Z,10
2023-03-18T07:28:33.403Z,10
2023-03-18T07:29:49.650Z,10.1
2023-03-18T07:31:05.894Z,10.1
2023-03-18T07:32:22.136Z,10.2
2023-03-18T07:33:37.393Z,10.2
2023-03-18T07:34:53.618Z,10.3
2023-03-18T07:36:09.874Z,10.3
2023-03-18T07:37:26.097Z,10.4
2023-03-18T07:38:42.355Z,10.4
2023-03-18T07:39:58.594Z,10.5
2023-03-18T07:41:14.825Z,10.5
2023-03-18T07:42:31.060Z,10.6
2023-03-18T07:43:47.307Z,10.6
2023-03-18T07:45:03.541Z,10.7
2023-03-18T07:46:19.796Z,10.7
2023-03-18T07:47:36.029Z,10.8
2023-03-18T07:48:52.277Z,10.8
2023-03-18T07:50:07.527Z,10.9
2023-03-18T07:52:40.010Z,10.9
2023-03-18T07:53:56.236Z,11
2023-03-18T07:55:12.492Z,11
2023-03-18T07:56:28.730Z,11
2023-03-18T07:57:44.955Z,11
2023-03-18T07:59:01.207Z,11.1
2023-03-18T08:00:17.441Z,11.1
2023-03-18T08:01:33.684Z,11.2
2023-03-18T08:02:49.918Z,11.2
2023-03-18T08:04:06.171Z,11.3
2023-03-18T08:05:22.400Z,11.3
2023-03-18T08:06:37.661Z,11.3
2023-03-18T08:07:53.906Z,11.4
2023-03-18T08:09:09.153Z,11.4
2023-03-18T08:10:25.404Z,11.4
2023-03-18T08:11:41.637Z,11.4
2023-03-18T08:12:57.871Z,11.5
2023-03-18T08:14:14.129Z,11.5
2023-03-18T08:15:30.360Z,11.5
2023-03-18T08:16:46.602Z,11.5
2023-03-18T08:18:02.849Z,11.6
2023-03-18T08:19:19.071Z,11.7
2023-03-18T08:20:35.314Z,11.7
2023-03-18T08:21:51.568Z,11.8
2023-03-18T08:23:07.793Z,11.8
2023-03-18T08:24:24.034Z,11.9
2023-03-18T08:25:39.294Z,11.9
2023-03-18T08:26:55.531Z,12
2023-03-18T08:28:11.769Z,12
2023-03-18T08:29:28.020Z,12
2023-03-18T08:30:44.254Z,12
2023-03-18T08:32:00.491Z,12.1
2023-03-18T08:33:16.737Z,12.1
2023-03-18T08:34:32.964Z,12.1
2023-03-18T08:35:49.221Z,12.2
2023-03-18T08:37:05.456Z,12.2
2023-03-18T08:38:21.701Z,12.2
2023-03-18T08:39:37.927Z,12.2
2023-03-18T08:40:54.181Z,12.2
2023-03-18T08:42:09.442Z,12.2
2023-03-18T08:43:25.662Z,12.3
2023-03-18T08:44:41.907Z,12.2
2023-03-18T08:45:58.160Z,12.2
2023-03-18T08:47:14.383Z,12.2
2023-03-18T08:48:30.641Z,12.3
2023-03-18T08:49:46.872Z,12.4
2023-03-18T08:51:03.114Z,12.3
2023-03-18T08:52:19.348Z,12.4
2023-03-18T08:53:35.595Z,12.4
2023-03-18T08:56:08.068Z,12.4
2023-03-18T08:57:24.313Z,12.4
2023-03-18T08:58:39.562Z,12.5
2023-03-18T08:59:55.812Z,12.5
2023-03-18T09:01:12.038Z,12.5
2023-03-18T09:02:28.281Z,12.5
2023-03-18T09:03:44.528Z,12.6
2023-03-18T09:05:00.765Z,12.6
2023-03-18T09:06:17.014Z,12.7
2023-03-18T09:07:33.242Z,12.7
2023-03-18T09:08:49.475Z,12.7
2023-03-18T09:10:05.719Z,12.8
2023-03-18T09:11:21.971Z,12.8
2023-03-18T09:12:38.196Z,12.9
2023-03-18T09:13:54.454Z,12.9
2023-03-18T09:15:09.708Z,12.9
2023-03-18T09:16:25.938Z,12.9
2023-03-18T09:17:42.184Z,13
2023-03-18T09:18:58.411Z,13.1
2023-03-18T09:20:14.665Z,13.1
2023-03-18T09:21:30.901Z,13.2
2023-03-18T09:22:47.148Z,13.2
2023-03-18T09:24:03.384Z,13.3
2023-03-18T09:25:19.625Z,13.4
2023-03-18T09:26:35.866Z,13.5
2023-03-18T09:27:52.105Z,13.5
2023-03-18T09:29:08.339Z,13.6
2023-03-18T09:30:24.572Z,13.6
2023-03-18T09:31:39.838Z,13.7
2023-03-18T09:32:56.081Z,13.8
2023-03-18T09:34:12.313Z,13.8
2023-03-18T09:35:28.548Z,13.8
2023-03-18T09:36:44.798Z,13.9
2023-03-18T09:38:01.034Z,13.9
2023-03-18T09:39:17.278Z,14.1
2023-03-18T09:40:33.522Z,14.1
2023-03-18T09:41:49.747Z,14.1
2023-03-18T09:43:06.001Z,14.2
2023-03-18T09:44:22.242Z,14.3
2023-03-18T09:45:38.465Z,14.4
2023-03-18T09:46:54.712Z,14.4
2023-03-18T09:48:09.962Z,14.3
2023-03-18T09:49:26.213Z,14.4
2023-03-18T09:50:42.442Z,14.4
2023-03-18T09:51:58.688Z,14.4
2023-03-18T09:53:14.924Z,14.4
2023-03-18T09:54:31.173Z,14.4
2023-03-18T09:55:47.411Z,14.4
2023-03-18T09:57:03.645Z,14.4
2023-03-18T09:58:19.893Z,14.3
2023-03-18T09:59:36.126Z,14.4
2023-03-18T10:00:52.370Z,14.4
2023-03-18T10:02:08.601Z,14.4
2023-03-18T10:03:24.852Z,14.5
2023-03-18T10:04:40.105Z,14.6
2023-03-18T10:05:56.333Z,14.6
2023-03-18T10:07:12.581Z,14.7
2023-03-18T10:09:45.059Z,14.9
2023-03-18T10:11:01.292Z,14.9
2023-03-18T10:12:17.534Z,15
2023-03-18T10:13:33.775Z,15.1
2023-03-18T10:14:50.020Z,15.1
2023-03-18T10:16:06.271Z,15.1
2023-03-18T10:17:22.504Z,15.1
2023-03-18T10:18:38.737Z,15.1
2023-03-18T10:19:54.979Z,15.1
2023-03-18T10:21:10.240Z,15.1
2023-03-18T10:22:26.489Z,15.2
2023-03-18T10:24:58.959Z,15.2
2023-03-18T10:26:15.191Z,15.2
2023-03-18T10:27:31.441Z,15.3
2023-03-18T10:28:47.685Z,15.3
2023-03-18T10:30:03.923Z,15.3
2023-03-18T10:31:20.163Z,15.4
2023-03-18T10:32:36.387Z,15.4
2023-03-18T10:33:52.643Z,15.5
2023-03-18T10:35:08.877Z,15.6
2023-03-18T10:36:25.122Z,15.6
2023-03-18T10:37:40.364Z,15.7
2023-03-18T10:38:56.609Z,15.7
2023-03-18T10:40:12.855Z,15.7
2023-03-18T10:41:29.082Z,15.7
2023-03-18T10:42:45.323Z,15.7
2023-03-18T10:44:01.582Z,15.8
2023-03-18T10:45:17.809Z,15.9
2023-03-18T10:46:34.048Z,15.9
2023-03-18T10:47:50.283Z,15.9
2023-03-18T10:49:06.540Z,16
2023-03-18T10:50:22.775Z,16
2023-03-18T10:51:39.004Z,16.1
2023-03-18T10:52:55.244Z,16.2
2023-03-18T10:54:10.498Z,16.2
2023-03-18T10:55:26.754Z,16.3
2023-03-18T10:56:42.985Z,16.4
2023-03-18T10:57:59.230Z,16.5
2023-03-18T10:59:15.463Z,16.6
2023-03-18T11:00:31.711Z,16.6
2023-03-18T11:01:47.946Z,16.7
2023-03-18T11:03:04.184Z,16.7
2023-03-18T11:04:20.423Z,16.7
2023-03-18T11:05:36.670Z,16.7
2023-03-18T11:06:52.911Z,16.7
2023-03-18T11:08:09.150Z,16.8
2023-03-18T11:09:25.380Z,16.8
2023-03-18T11:10:40.630Z,16.9
2023-03-18T11:11:56.889Z,16.9
2023-03-18T11:13:13.118Z,17
2023-03-18T11:14:29.361Z,17.2
2023-03-18T11:15:45.607Z,17.2
2023-03-18T11:17:01.836Z,17.2
2023-03-18T11:18:18.081Z,17.3
2023-03-18T11:19:34.326Z,17.4
2023-03-18T11:20:50.563Z,17.4
2023-03-18T11:22:06.788Z,17.5
2023-03-18T11:23:23.028Z,17.5
2023-03-18T11:24:39.275Z,17.6
2023-03-18T11:25:55.526Z,17.6
2023-03-18T11:27:10.776Z,17.5
2023-03-18T11:28:27.005Z,17.5
2023-03-18T11:29:43.255Z,17.5
2023-03-18T11:30:59.489Z,17.5
2023-03-18T11:32:15.741Z,17.5
2023-03-18T11:33:31.967Z,17.6
2023-03-18T11:34:48.211Z,17.6
2023-03-18T11:36:04.448Z,17.6
2023-03-18T11:37:20.698Z,17.6
2023-03-18T11:38:36.927Z,17.6
2023-03-18T11:41:09.404Z,17.5
2023-03-18T11:42:25.660Z,17.6
2023-03-18T11:43:40.905Z,17.5
2023-03-18T11:44:57.137Z,17.6
2023-03-18T11:46:13.384Z,17.6
2023-03-18T11:47:29.615Z,17.6
2023-03-18T11:48:45.869Z,17.6
2023-03-18T11:50:02.105Z,17.5
2023-03-18T11:51:18.335Z,17.5
2023-03-18T11:52:34.574Z,17.5
2023-03-18T11:53:50.829Z,17.5
2023-03-18T11:55:07.068Z,17.5
2023-03-18T11:56:23.295Z,17.5
2023-03-18T11:57:39.536Z,17.5
2023-03-18T11:58:55.789Z,17.4
2023-03-18T12:00:12.149Z,17.4
2023-03-18T12:01:28.385Z,17.4
2023-03-18T12:02:44.617Z,17.4
2023-03-18T12:04:00.873Z,17.4
2023-03-18T12:05:17.095Z,17.4
2023-03-18T12:06:33.349Z,17.3
2023-03-18T12:07:49.583Z,17.3
2023-03-18T12:09:05.827Z,17.3
2023-03-18T12:10:22.055Z,17.4
2023-03-18T12:11:38.309Z,17.4
2023-03-18T12:12:54.541Z,17.4
2023-03-18T12:14:10.785Z,17.4
2023-03-18T12:15:27.024Z,17.4
2023-03-18T12:16:42.281Z,17.4
2023-03-18T12:17:58.520Z,17.4
2023-03-18T12:19:14.750Z,17.4
2023-03-18T12:20:30.989Z,17.4
2023-03-18T12:21:47.245Z,17.3
2023-03-18T12:23:03.467Z,17.3
2023-03-18T12:24:18.747Z,17.3
2023-03-18T12:26:51.219Z,17.3
2023-03-18T12:28:07.450Z,17.3
2023-03-18T12:29:23.686Z,17.3
2023-03-18T12:30:39.928Z,17.3
2023-03-18T12:31:56.178Z,17.3
2023-03-18T12:33:12.420Z,17.3
2023-03-18T12:34:28.646Z,17.4
2023-03-18T12:35:44.906Z,17.3
2023-03-18T12:37:01.141Z,17.3
2023-03-18T12:38:17.364Z,17.3
2023-03-18T12:39:33.617Z,17.3
2023-03-18T12:42:05.106Z,17.3
2023-03-18T12:43:21.359Z,17.3
2023-03-18T12:44:37.601Z,17.3
2023-03-18T12:45:53.830Z,17.3
2023-03-18T12:47:10.064Z,17.3
2023-03-18T12:48:26.307Z,17.3
2023-03-18T12:49:42.548Z,17.3
2023-03-18T12:50:58.793Z,17.3
2023-03-18T12:52:15.038Z,17.4
2023-03-18T12:53:31.276Z,17.4
2023-03-18T12:54:47.515Z,17.4
2023-03-18T12:56:03.745Z,17.5
2023-03-18T12:57:19.998Z,17.4
2023-03-18T12:58:35.253Z,17.5
2023-03-18T12:59:51.473Z,17.5
2023-03-18T13:01:07.713Z,17.4
2023-03-18T13:02:23.956Z,17.5
2023-03-18T13:03:40.212Z,17.5
2023-03-18T13:04:56.451Z,17.5
2023-03-18T13:06:12.676Z,17.5
2023-03-18T13:08:45.160Z,17.5
2023-03-18T13:10:01.403Z,17.5
2023-03-18T13:11:17.647Z,17.5
2023-03-18T13:12:33.888Z,17.5
2023-03-18T13:13:50.116Z,17.6
2023-03-18T13:15:05.387Z,17.6
2023-03-18T13:16:21.609Z,17.6
2023-03-18T13:17:37.856Z,17.6
2023-03-18T13:18:54.107Z,17.6
2023-03-18T13:20:10.329Z,17.6
2023-03-18T13:21:26.586Z,17.5
2023-03-18T13:22:42.818Z,17.6
2023-03-18T13:23:59.049Z,17.5
2023-03-18T13:25:15.297Z,17.5
2023-03-18T13:26:31.531Z,17.5
2023-03-18T13:27:47.779Z,17.5
2023-03-18T13:29:04.020Z,17.4
2023-03-18T13:30:20.264Z,17.5
2023-03-18T13:31:35.512Z,17.4
2023-03-18T13:32:51.745Z,17.4
2023-03-18T13:34:07.984Z,17.4
2023-03-18T13:35:24.222Z,17.4
2023-03-18T13:36:40.479Z,17.4
2023-03-18T13:37:56.702Z,17.4
2023-03-18T13:39:12.947Z,17.5
2023-03-18T13:40:29.187Z,17.5
2023-03-18T13:41:45.426Z,17.6
2023-03-18T13:43:01.670Z,17.6
2023-03-18T13:44:17.911Z,17.6
2023-03-18T13:45:34.144Z,17.6
2023-03-18T13:46:50.395Z,17.6
2023-03-18T13:48:05.640Z,17.6
2023-03-18T13:49:21.879Z,17.6
2023-03-18T13:50:38.114Z,17.6
2023-03-18T13:51:54.355Z,17.6
2023-03-18T13:53:10.596Z,17.7
2023-03-18T13:54:26.840Z,17.7
2023-03-18T13:55:43.078Z,17.8
2023-03-18T13:56:59.312Z,17.8
2023-03-18T13:58:15.569Z,17.9
2023-03-18T14:00:48.041Z,18
2023-03-18T14:02:04.289Z,18
2023-03-18T14:03:20.525Z,18
2023-03-18T14:04:36.887Z,18.1
2023-03-18T14:07:09.373Z,18.1
2023-03-18T14:08:25.600Z,18.1
2023-03-18T14:09:41.851Z,18.1
2023-03-18T14:10:58.077Z,18
2023-03-18T14:12:14.324Z,18.1
2023-03-18T14:13:30.557Z,18.1
2023-03-18T14:14:46.797Z,18.1
2023-03-18T14:16:03.048Z,18.1
2023-03-18T14:17:19.277Z,18
2023-03-18T14:18:35.520Z,18.1
2023-03-18T14:19:51.758Z,18
2023-03-18T14:21:07.009Z,18.1
2023-03-18T14:22:23.248Z,18
2023-03-18T14:23:39.502Z,18.1
2023-03-18T14:24:55.728Z,18.1
2023-03-18T14:26:11.982Z,18.1
2023-03-18T14:27:28.219Z,18.1
2023-03-18T14:28:44.455Z,18
2023-03-18T14:30:00.690Z,18.1
2023-03-18T14:31:16.942Z,18.1
2023-03-18T14:32:33.168Z,18.1
2023-03-18T14:33:49.417Z,18.1
2023-03-18T14:35:05.663Z,18.2
2023-03-18T14:36:21.899Z,18.2
2023-03-18T14:37:37.147Z,18.2
2023-03-18T14:38:53.381Z,18.2
2023-03-18T14:40:09.621Z,18.2
2023-03-18T14:41:25.864Z,18.2
2023-03-18T14:42:42.108Z,18.1
2023-03-18T14:43:58.341Z,18.2
2023-03-18T14:45:14.596Z,18.2
2023-03-18T14:46:30.831Z,18.2
2023-03-18T14:47:47.071Z,18.2
2023-03-18T14:49:03.316Z,18.2
2023-03-18T14:50:19.557Z,18.2
2023-03-18T14:51:35.786Z,18.2
2023-03-18T14:52:52.031Z,18.1
2023-03-18T14:54:07.283Z,18.1
2023-03-18T14:55:23.514Z,18.1
2023-03-18T14:56:39.767Z,18.1
2023-03-18T14:57:56.005Z,18.1
2023-03-18T14:59:12.248Z,18.1
2023-03-18T15:00:28.476Z,18.1
2023-03-18T15:01:44.713Z,18.1
2023-03-18T15:03:00.954Z,18
2023-03-18T15:04:17.201Z,18
2023-03-18T15:05:33.449Z,18
2023-03-18T15:06:49.676Z,18
2023-03-18T15:08:05.912Z,18
2023-03-18T15:09:22.156Z,18
2023-03-18T15:10:38.409Z,18
2023-03-18T15:11:54.766Z,18
2023-03-18T15:13:11.000Z,18
2023-03-18T15:14:27.246Z,18
2023-03-18T15:15:43.477Z,17.9
2023-03-18T15:16:59.724Z,18
2023-03-18T15:18:15.957Z,17.9
2023-03-18T15:19:32.204Z,17.9
2023-03-18T15:22:04.674Z,17.9
2023-03-18T15:23:20.917Z,17.8
2023-03-18T15:24:37.155Z,17.8
2023-03-18T15:25:53.409Z,17.8
2023-03-18T15:27:09.648Z,17.8
2023-03-18T15:28:25.998Z,17.7
2023-03-18T15:29:42.247Z,17.7
2023-03-18T15:30:58.476Z,17.7
2023-03-18T15:32:14.732Z,17.8
2023-03-18T15:33:30.965Z,17.7
2023-03-18T15:34:47.195Z,17.7
2023-03-18T15:36:03.445Z,17.7
2023-03-18T15:37:19.684Z,17.7
2023-03-18T15:38:35.915Z,17.7
2023-03-18T15:39:52.153Z,17.8
2023-03-18T15:41:08.399Z,17.8
2023-03-18T15:42:24.644Z,17.8
2023-03-18T15:43:40.880Z,17.8
2023-03-18T15:44:56.140Z,17.8
2023-03-18T15:46:12.381Z,17.9
2023-03-18T15:47:28.614Z,17.9
2023-03-18T15:48:44.859Z,17.9
2023-03-18T15:50:01.103Z,17.9
2023-03-18T15:51:17.335Z,17.9
2023-03-18T15:52:33.576Z,18
2023-03-18T15:53:49.811Z,17.9
2023-03-18T15:55:06.057Z,17.9
2023-03-18T15:56:22.302Z,17.9
2023-03-18T15:57:38.547Z,17.9
2023-03-18T15:58:54.783Z,17.9
2023-03-18T16:00:11.006Z,17.8
2023-03-18T16:01:26.275Z,17.8
2023-03-18T16:02:42.510Z,17.8
2023-03-18T16:03:58.744Z,17.8
2023-03-18T16:05:14.998Z,17.7
2023-03-18T16:07:47.472Z,17.7
2023-03-18T16:09:03.719Z,17.6
2023-03-18T16:10:19.948Z,17.5
2023-03-18T16:11:36.184Z,17.6
2023-03-18T16:12:52.428Z,17.5
2023-03-18T16:14:08.678Z,17.5
2023-03-18T16:15:24.919Z,17.4
2023-03-18T16:16:41.153Z,17.4
2023-03-18T16:17:56.415Z,17.4
2023-03-18T16:19:12.650Z,17.3
2023-03-18T16:20:28.884Z,17.2
2023-03-18T16:21:45.134Z,17.2
2023-03-18T16:23:01.369Z,17.2
2023-03-18T16:24:17.611Z,17.2
2023-03-18T16:25:33.837Z,17.1
2023-03-18T16:26:50.082Z,17.1
2023-03-18T16:28:06.329Z,17
2023-03-18T16:30:38.801Z,17
2023-03-18T16:31:55.055Z,17
2023-03-18T16:33:11.285Z,16.9
2023-03-18T16:34:26.545Z,17
2023-03-18T16:35:42.781Z,16.9
2023-03-18T16:36:59.031Z,16.8
2023-03-18T16:38:15.262Z,16.8
2023-03-18T16:39:30.515Z,16.7
2023-03-18T16:40:46.762Z,16.7
2023-03-18T16:42:03.004Z,16.6
2023-03-18T16:43:19.253Z,16.6
2023-03-18T16:44:35.487Z,16.5
2023-03-18T16:45:51.721Z,16.5
2023-03-18T16:47:07.955Z,16.4
2023-03-18T16:48:24.198Z,16.4
2023-03-18T16:49:40.445Z,16.3
2023-03-18T16:50:56.685Z,16.3
2023-03-18T16:52:12.925Z,16.2
2023-03-18T16:53:29.156Z,16.2
2023-03-18T16:54:45.405Z,16.1
2023-03-18T16:56:00.657Z,16.1
2023-03-18T16:57:16.895Z,16
2023-03-18T16:58:33.138Z,16
2023-03-18T16:59:49.379Z,15.9
2023-03-18T17:01:05.627Z,15.9
2023-03-18T17:02:21.862Z,15.8
2023-03-18T17:03:38.101Z,15.7
2023-03-18T17:04:54.329Z,15.7
2023-03-18T17:06:10.587Z,15.6
2023-03-18T17:07:26.829Z,15.5
2023-03-18T17:08:43.063Z,15.5
2023-03-18T17:09:59.297Z,15.4
2023-03-18T17:11:15.540Z,15.3
2023-03-18T17:12:30.797Z,15.2
2023-03-18T17:13:47.041Z,15.2
2023-03-18T17:15:03.282Z,15.1
2023-03-18T17:16:19.505Z,15.1
2023-03-18T17:17:35.756Z,15
2023-03-18T17:18:51.993Z,14.9
2023-03-18T17:20:08.236Z,14.9
2023-03-18T17:21:24.473Z,14.9
2023-03-18T17:22:40.709Z,14.8
2023-03-18T17:23:56.946Z,14.8
2023-03-18T17:25:13.204Z,14.6
2023-03-18T17:26:29.438Z,14.6
2023-03-18T17:27:45.673Z,14.5
2023-03-18T17:29:00.928Z,14.5
2023-03-18T17:30:17.180Z,14.4
2023-03-18T17:31:33.411Z,14.4
2023-03-18T17:32:49.652Z,14.3
2023-03-18T17:34:05.887Z,14.3
2023-03-18T17:35:22.135Z,14.3
2023-03-18T17:36:38.381Z,14.3
2023-03-18T17:37:54.602Z,14.2
2023-03-18T17:39:10.848Z,14.2
2023-03-18T17:40:27.094Z,14.2
2023-03-18T17:41:43.337Z,14.2
2023-03-18T17:42:59.561Z,14.1
2023-03-18T17:44:15.815Z,14.2
2023-03-18T17:45:32.051Z,14.2
2023-03-18T17:46:47.306Z,14.1
2023-03-18T17:48:03.549Z,14.1